Time;durP1;ratioP1;P1;durP2;ratioP2;P2;SDS_P1;SDS_P2;PMS_P1;PMS_P2;Temp;Humidity;BMP_temperature;BMP_pressure;BME280_temperature;BME280_humidity;BME280_pressure;Samples;Min_cycle;Max_cycle;Signal;HPM_P1;HPM_P2
2022/04/17 00:00:40;;;;;;;5.47;2.40;;;;;;;3.62;62.90;100069.06;5011547;28;20030;-69
2022/04/17 00:03:06;;;;;;;6.63;2.60;;;;;;;3.57;63.37;100067.75;5004932;28;20021;-68
2022/04/17 00:05:32;;;;;;;4.82;2.70;;;;;;;3.61;63.22;100072.69;5012012;28;20025;-68
2022/04/17 00:07:57;;;;;;;4.63;2.63;;;;;;;3.59;63.49;100079.16;5013978;28;20036;-69
2022/04/17 00:10:23;;;;;;;5.38;2.50;;;;;;;3.50;63.31;100086.13;5012983;28;20033;-68
2022/04/17 00:12:48;;;;;;;3.58;1.88;;;;;;;3.48;63.41;100082.72;5017587;28;20054;-70
2022/04/17 00:15:14;;;;;;;3.35;2.33;;;;;;;3.49;63.75;100084.44;5016449;28;20109;-69
2022/04/17 00:17:42;;;;;;;5.35;2.08;;;;;;;3.38;63.88;100073.75;5011366;28;20069;-68
2022/04/17 00:20:09;;;;;;;3.28;2.10;;;;;;;3.32;64.26;100068.91;5012349;28;20022;-69
2022/04/17 00:22:34;;;;;;;4.15;2.20;;;;;;;3.38;64.10;100063.91;4997035;28;20483;-70
2022/04/17 00:25:01;;;;;;;6.07;2.50;;;;;;;3.47;64.25;100062.28;5012425;28;20049;-70
2022/04/17 00:27:27;;;;;;;5.07;2.45;;;;;;;3.28;65.18;100034.38;5013140;28;20041;-70
2022/04/17 00:29:52;;;;;;;4.40;2.95;;;;;;;3.29;64.27;100030.72;5013589;28;20021;-71
2022/04/17 00:32:18;;;;;;;8.23;2.95;;;;;;;3.40;64.57;100055.75;5007897;28;20025;-70
2022/04/17 00:34:44;;;;;;;8.20;2.67;;;;;;;3.31;65.03;100056.53;5012103;28;20507;-70
2022/04/17 00:37:10;;;;;;;6.80;2.78;;;;;;;3.31;65.15;100061.88;4995193;28;20037;-70
2022/04/17 00:39:35;;;;;;;4.88;2.30;;;;;;;3.40;64.71;100048.56;5011609;28;20109;-70
2022/04/17 00:42:04;;;;;;;6.20;2.55;;;;;;;3.29;65.09;100033.41;5010995;28;20026;-70
2022/04/17 00:44:30;;;;;;;4.40;2.35;;;;;;;3.31;64.12;100037.78;5013987;28;20480;-70
2022/04/17 00:46:55;;;;;;;7.25;2.00;;;;;;;3.28;63.97;100036.22;5008908;28;20029;-70
2022/04/17 00:49:21;;;;;;;4.05;2.28;;;;;;;3.28;63.77;100029.03;4995420;28;20033;-70
2022/04/17 00:51:47;;;;;;;3.92;2.10;;;;;;;3.05;64.44;100001.50;5004006;28;20033;-70
2022/04/17 00:54:14;;;;;;;3.28;2.00;;;;;;;3.11;62.73;100005.50;5002411;28;20026;-70
2022/04/17 00:56:40;;;;;;;4.20;2.20;;;;;;;3.40;62.42;100037.84;5012155;28;20064;-69
2022/04/17 00:59:06;;;;;;;4.05;2.10;;;;;;;3.44;61.62;100043.81;5012095;28;20030;-69
2022/04/17 01:01:33;;;;;;;3.25;2.03;;;;;;;3.55;61.03;100029.56;5009060;28;20565;-69
2022/04/17 01:03:59;;;;;;;4.35;2.10;;;;;;;3.49;61.95;100039.78;5011442;28;20030;-69
2022/04/17 01:06:25;;;;;;;3.40;2.45;;;;;;;3.55;62.31;100032.22;5013614;28;20029;-68
2022/04/17 01:08:51;;;;;;;3.28;2.00;;;;;;;3.46;61.02;100025.81;5014574;28;20026;-69
2022/04/17 01:11:17;;;;;;;6.03;2.50;;;;;;;3.42;60.48;100006.47;5009438;28;20109;-70
2022/04/17 01:13:43;;;;;;;2.38;1.70;;;;;;;3.84;59.02;100024.41;5007615;28;20026;-70
2022/04/17 01:16:08;;;;;;;3.35;1.88;;;;;;;3.85;58.66;100020.75;5013492;28;20026;-70
2022/04/17 01:18:56;;;;;;;3.35;1.65;;;;;;;3.91;58.87;100030.97;5014121;28;20117;-70
2022/04/17 01:21:24;;;;;;;3.63;1.67;;;;;;;3.74;59.37;100002.94;5006900;28;20694;-70
2022/04/17 01:29:19;;;;;;;5.10;2.20;;;;;;;4.11;57.55;100016.72;5019367;28;20736;-70
2022/04/17 01:31:45;;;;;;;3.70;1.98;;;;;;;4.17;57.27;100016.19;5030701;28;20033;-70
2022/04/17 01:34:10;;;;;;;3.88;1.80;;;;;;;4.31;56.61;100014.13;5029917;28;20041;-70
2022/04/17 01:36:35;;;;;;;4.55;2.22;;;;;;;4.27;56.98;100004.66;5008608;28;20053;-70
2022/04/17 01:39:01;;;;;;;9.15;4.05;;;;;;;4.21;57.18;100002.50;5031893;28;20049;-71
2022/04/17 01:41:26;;;;;;;8.43;3.50;;;;;;;4.17;57.29;100010.81;5029807;28;20055;-70
2022/04/17 01:43:51;;;;;;;12.63;5.10;;;;;;;4.13;57.25;100005.84;5031489;28;20022;-70
2022/04/17 01:46:17;;;;;;;7.22;3.40;;;;;;;4.17;57.50;100009.97;5031659;28;20049;-70
2022/04/17 01:48:42;;;;;;;12.10;4.43;;;;;;;4.12;57.03;99998.81;5029874;28;20089;-71
2022/04/17 01:51:07;;;;;;;13.82;6.40;;;;;;;4.15;57.44;100006.56;5027985;28;20025;-71
2022/04/17 01:53:33;;;;;;;18.70;6.70;;;;;;;3.99;58.08;100009.72;5030983;28;20021;-70
2022/04/17 01:56:02;;;;;;;15.50;6.15;;;;;;;3.91;57.64;100001.50;5029937;28;20026;-69
2022/04/17 01:58:27;;;;;;;9.20;3.47;;;;;;;3.86;57.90;99996.53;5013015;28;20053;-69
2022/04/17 02:00:53;;;;;;;14.55;5.75;;;;;;;3.74;58.54;99993.06;5006048;28;20568;-69
2022/04/17 02:03:18;;;;;;;9.80;4.20;;;;;;;3.80;58.92;99993.53;5011011;28;20041;-69
2022/04/17 02:05:44;;;;;;;9.30;4.03;;;;;;;3.74;58.94;99992.22;4994599;28;20041;-68
2022/04/17 02:08:09;;;;;;;3.75;1.92;;;;;;;3.49;59.12;99964.03;5015090;28;20025;-68
2022/04/17 02:10:35;;;;;;;4.68;2.10;;;;;;;3.86;58.41;99987.66;5015230;28;20053;-69
2022/04/17 02:13:00;;;;;;;7.97;3.80;;;;;;;3.72;58.69;99980.78;5012776;28;20038;-69
2022/04/17 02:15:26;;;;;;;6.53;2.75;;;;;;;3.87;58.21;99974.13;5013298;28;20046;-68
2022/04/17 02:17:51;;;;;;;4.55;2.40;;;;;;;3.97;57.26;99966.16;5015418;28;20037;-68
2022/04/17 02:20:16;;;;;;;3.28;1.80;;;;;;;4.09;57.24;99980.34;4996931;28;20032;-69
2022/04/17 02:22:42;;;;;;;3.70;2.10;;;;;;;4.12;57.12;99975.56;5012385;28;20037;-68
2022/04/17 02:25:08;;;;;;;3.17;1.98;;;;;;;4.11;56.76;99947.09;5014888;28;20022;-68
2022/04/17 02:27:33;;;;;;;3.55;2.00;;;;;;;4.18;56.23;99948.22;5014693;28;20487;-68
2022/04/17 02:29:58;;;;;;;3.67;2.08;;;;;;;4.24;56.17;99962.91;5013491;28;20089;-68
2022/04/17 02:32:24;;;;;;;4.70;2.42;;;;;;;4.18;56.60;99971.50;5008170;28;20033;-68
2022/04/17 02:34:49;;;;;;;8.50;1.88;;;;;;;3.89;56.90;99926.66;5014223;28;20029;-68
2022/04/17 02:37:14;;;;;;;2.45;1.80;;;;;;;4.01;56.79;99946.19;5012357;28;20419;-68
2022/04/17 02:39:39;;;;;;;4.72;2.40;;;;;;;3.90;57.46;99954.28;5011365;28;20097;-68
2022/04/17 02:42:05;;;;;;;4.88;2.33;;;;;;;3.82;58.67;99949.59;5010344;28;20034;-68
2022/04/17 02:44:30;;;;;;;3.58;1.95;;;;;;;3.88;58.11;99965.13;4994869;28;20040;-68
2022/04/17 02:49:40;;;;;;;3.13;1.80;;;;;;;3.52;59.00;99934.34;5015569;28;20088;-69
2022/04/17 02:52:05;;;;;;;3.65;2.20;;;;;;;3.40;58.70;99924.66;5012134;28;20029;-68
2022/04/17 02:54:30;;;;;;;3.42;2.35;;;;;;;3.66;58.30;99949.22;5016075;28;20627;-68
2022/04/17 02:56:56;;;;;;;4.45;2.30;;;;;;;3.65;58.78;99947.53;5001271;28;20156;-68
2022/04/17 02:59:21;;;;;;;2.63;1.50;;;;;;;3.74;58.35;99947.56;5012281;28;20052;-68
2022/04/17 03:07:14;;;;;;;2.65;2.00;;;;;;;3.33;59.51;99939.53;5035325;28;20032;-68
2022/04/17 03:09:39;;;;;;;3.67;2.47;;;;;;;3.17;60.86;99945.31;5032838;28;20085;-69
2022/04/17 03:12:05;;;;;;;3.60;2.00;;;;;;;3.10;60.32;99944.16;5040586;28;20037;-69
2022/04/17 03:14:30;;;;;;;4.32;1.80;;;;;;;2.79;61.31;99887.88;5033237;28;20034;-68
2022/04/17 03:16:56;;;;;;;2.83;1.80;;;;;;;3.18;61.88;99936.34;5036193;28;20033;-68
2022/04/17 03:19:21;;;;;;;3.30;1.80;;;;;;;3.15;61.31;99941.94;5031277;28;20025;-69
2022/04/17 03:21:47;;;;;;;6.68;2.10;;;;;;;3.12;61.05;99947.53;5035628;28;20026;-69
2022/04/17 03:24:12;;;;;;;3.05;1.98;;;;;;;3.27;60.03;99962.28;5033471;28;20021;-68
2022/04/17 03:26:41;;;;;;;2.75;1.70;;;;;;;3.26;60.36;99961.44;5018561;28;20022;-69
2022/04/17 03:29:06;;;;;;;2.50;1.77;;;;;;;3.11;60.87;99962.72;5014094;28;20030;-68
2022/04/17 03:31:32;;;;;;;4.35;2.17;;;;;;;3.10;60.54;99953.00;4987356;28;20395;-67
2022/04/17 03:33:57;;;;;;;4.13;2.00;;;;;;;3.14;59.89;99922.34;5007475;28;20057;-68
2022/04/17 03:36:22;;;;;;;5.28;1.90;;;;;;;3.16;60.39;99936.44;5015120;28;20025;-68
2022/04/17 03:38:47;;;;;;;8.65;2.15;;;;;;;3.24;60.51;99952.69;5007106;28;20089;-68
2022/04/17 03:41:13;;;;;;;3.15;1.90;;;;;;;3.09;61.67;99953.97;5005954;28;20026;-67
2022/04/17 03:43:39;;;;;;;4.97;2.20;;;;;;;3.00;62.64;99954.75;5014108;28;20030;-68
2022/04/17 03:46:04;;;;;;;6.38;2.10;;;;;;;2.72;63.40;99951.66;5013476;28;20467;-68
2022/04/17 03:48:30;;;;;;;8.90;2.55;;;;;;;2.51;63.83;99937.38;5011177;28;20022;-68
2022/04/17 03:50:56;;;;;;;6.22;2.00;;;;;;;2.39;64.60;99952.56;5012788;28;20130;-68
2022/04/17 03:53:21;;;;;;;4.63;2.70;;;;;;;2.22;64.70;99940.56;5011364;28;20116;-68
2022/04/17 03:55:47;;;;;;;3.47;2.38;;;;;;;1.97;65.10;99913.16;5012659;28;20026;-69
2022/04/17 03:58:12;;;;;;;2.85;1.90;;;;;;;2.09;66.42;99932.66;5012676;28;20384;-67
2022/04/17 04:00:37;;;;;;;4.10;2.47;;;;;;;2.16;65.98;99947.22;5010773;28;20506;-68
2022/04/17 04:03:03;;;;;;;3.60;2.13;;;;;;;2.24;65.86;99940.44;4992962;28;20068;-68
2022/04/17 04:05:29;;;;;;;5.20;2.33;;;;;;;2.17;66.58;99934.72;5014003;28;20045;-67
2022/04/17 04:07:54;;;;;;;3.75;2.00;;;;;;;2.09;66.51;99910.47;5009401;28;20072;-68
2022/04/17 04:10:19;;;;;;;4.30;2.50;;;;;;;2.12;66.22;99943.13;4992645;28;20029;-68
2022/04/17 04:12:44;;;;;;;3.50;2.60;;;;;;;2.04;67.02;99939.34;5009875;28;20029;-67
2022/04/17 04:15:10;;;;;;;5.30;2.70;;;;;;;2.08;67.07;99925.63;5013191;28;20034;-68
2022/04/17 04:17:35;;;;;;;3.25;2.10;;;;;;;2.19;66.37;99936.31;5013961;28;20487;-67
2022/04/17 04:20:02;;;;;;;4.07;2.47;;;;;;;2.17;66.43;99929.38;5014096;28;20022;-68
2022/04/17 04:22:28;;;;;;;4.60;2.67;;;;;;;2.00;67.19;99911.22;5007784;28;20037;-68
2022/04/17 04:24:53;;;;;;;5.95;2.80;;;;;;;2.03;67.60;99905.63;5012483;28;20040;-69
2022/04/17 04:30:03;;;;;;;3.85;2.38;;;;;;;2.04;68.50;99936.66;5011675;28;20044;-69
2022/04/17 04:32:28;;;;;;;6.20;2.72;;;;;;;1.89;68.63;99915.56;5010959;28;20152;-69
2022/04/17 04:34:59;;;;;;;4.47;2.70;;;;;;;2.03;69.09;99938.50;5012929;28;20101;-69
2022/04/17 04:37:24;;;;;;;4.65;2.97;;;;;;;1.89;69.94;99936.06;5009881;28;20030;-69
2022/04/17 04:39:50;;;;;;;7.25;2.97;;;;;;;1.79;70.27;99935.94;5011998;28;20032;-69
2022/04/17 04:42:15;;;;;;;3.72;2.70;;;;;;;1.77;69.97;99935.19;5010170;28;20391;-69
2022/04/17 04:44:40;;;;;;;5.20;2.75;;;;;;;1.70;70.50;99937.50;5010453;28;20108;-69
2022/04/17 04:47:05;;;;;;;4.47;2.72;;;;;;;1.75;70.88;99947.81;5013009;28;20038;-69
2022/04/17 04:49:31;;;;;;;3.83;2.80;;;;;;;1.69;70.82;99951.78;5013035;28;20029;-69
2022/04/17 04:52:03;;;;;;;4.32;2.42;;;;;;;1.32;70.76;99911.09;5009120;28;20069;-69
2022/04/17 04:54:29;;;;;;;9.70;3.22;;;;;;;1.73;70.86;99952.44;5005143;28;20036;-69
2022/04/17 04:56:55;;;;;;;3.95;2.40;;;;;;;1.66;70.45;99916.53;4993811;28;20097;-69
2022/04/17 04:59:21;;;;;;;5.68;2.90;;;;;;;1.70;70.26;99908.16;5011160;28;20029;-69
2022/04/17 05:01:47;;;;;;;5.80;2.90;;;;;;;1.95;70.08;99935.59;4992481;28;20025;-69
2022/04/17 05:04:13;;;;;;;5.97;2.85;;;;;;;1.74;70.86;99911.44;4991450;28;20487;-69
2022/04/17 05:06:39;;;;;;;6.93;2.75;;;;;;;1.79;71.46;99935.09;5012479;28;20475;-69
2022/04/17 05:09:04;;;;;;;6.72;2.85;;;;;;;1.77;71.62;99924.53;5011249;28;20030;-69
2022/04/17 05:11:31;;;;;;;4.13;2.70;;;;;;;1.96;70.82;99950.63;5013538;28;20026;-69
2022/04/17 05:13:56;;;;;;;4.63;2.47;;;;;;;2.09;70.40;99934.50;5005737;28;20026;-69
2022/04/17 05:16:22;;;;;;;7.45;2.83;;;;;;;2.25;69.44;99929.63;5007714;28;20084;-69
2022/04/17 05:18:50;;;;;;;8.60;3.38;;;;;;;2.48;69.25;99926.94;5011176;28;20026;-69
2022/04/17 05:21:20;;;;;;;4.53;2.60;;;;;;;2.73;68.21;99928.47;5011791;28;20026;-69
2022/04/17 05:23:45;;;;;;;4.78;2.35;;;;;;;2.89;67.08;99920.03;5001133;28;20026;-69
2022/04/17 05:26:10;;;;;;;4.47;2.25;;;;;;;3.14;64.99;99930.38;5010485;28;20033;-69
2022/04/17 05:28:35;;;;;;;6.60;2.63;;;;;;;3.13;65.37;99890.41;5006487;28;20045;-69
2022/04/17 05:31:01;;;;;;;4.13;2.47;;;;;;;3.53;62.68;99911.09;5046514;23;20056;-68
2022/04/17 05:33:26;;;;;;;6.57;2.58;;;;;;;3.96;61.00;99937.69;5009098;28;20040;-68
2022/04/17 05:35:52;;;;;;;3.25;2.20;;;;;;;4.18;60.43;99929.47;5011680;28;20026;-68
2022/04/17 05:38:20;;;;;;;5.50;2.28;;;;;;;4.49;58.93;99940.16;5012967;28;20092;-68
2022/04/17 05:40:48;;;;;;;4.65;2.13;;;;;;;4.78;57.60;99945.59;5024201;28;20022;-69
2022/04/17 05:43:14;;;;;;;5.00;2.77;;;;;;;5.01;56.83;99948.88;5032303;28;20049;-69
2022/04/17 05:45:40;;;;;;;5.95;2.28;;;;;;;5.26;55.44;99939.41;5031754;28;20072;-68
2022/04/17 05:48:06;;;;;;;4.50;2.00;;;;;;;5.69;54.60;99942.66;5036211;28;20021;-69
2022/04/17 05:50:32;;;;;;;4.20;2.25;;;;;;;6.36;52.28;99922.78;5035537;28;20060;-69
2022/04/17 05:52:58;;;;;;;6.25;2.28;;;;;;;8.08;48.65;99945.09;5014569;28;20061;-69
2022/04/17 05:55:23;;;;;;;4.13;2.08;;;;;;;10.01;43.53;99920.72;5031444;28;20021;-68
2022/04/17 05:57:48;;;;;;;4.30;2.00;;;;;;;12.39;38.50;99911.81;5027958;28;20029;-68
2022/04/17 06:00:16;;;;;;;3.83;2.10;;;;;;;12.52;37.95;99912.00;5021670;28;20076;-71
2022/04/17 06:02:43;;;;;;;4.18;1.70;;;;;;;13.74;35.13;99905.81;5021738;28;20032;-71
2022/04/17 06:05:09;;;;;;;3.42;1.55;;;;;;;13.10;35.56;99903.94;5030342;28;20033;-71
2022/04/17 06:07:34;;;;;;;4.07;2.10;;;;;;;13.36;35.63;99908.81;5030875;28;20025;-72
2022/04/17 06:10:04;;;;;;;4.15;1.98;;;;;;;14.62;33.28;99915.19;5027068;28;20565;-72
2022/04/17 06:12:30;;;;;;;2.95;1.42;;;;;;;14.80;32.60;99905.63;5030829;28;20036;-72
2022/04/17 06:14:56;;;;;;;3.58;1.90;;;;;;;16.15;30.38;99876.41;5030452;28;20021;-71
2022/04/17 06:17:21;;;;;;;3.17;1.67;;;;;;;16.48;29.38;99897.31;5029250;28;20041;-71
2022/04/17 06:19:46;;;;;;;3.42;1.67;;;;;;;15.38;30.61;99866.97;5034448;28;20033;-73
2022/04/17 06:22:12;;;;;;;2.38;1.70;;;;;;;15.25;31.84;99903.25;5031192;28;20029;-71
2022/04/17 06:24:37;;;;;;;6.63;2.08;;;;;;;14.75;31.79;99898.09;5036712;28;20049;-72
2022/04/17 06:27:03;;;;;;;3.67;1.63;;;;;;;15.38;30.95;99908.72;5036343;28;20049;-72
2022/04/17 06:29:28;;;;;;;3.20;1.67;;;;;;;15.68;30.73;99895.53;5027165;28;20025;-68
2022/04/17 06:31:53;;;;;;;4.55;1.80;;;;;;;16.27;29.83;99909.34;5030673;28;20030;-75
2022/04/17 06:34:19;;;;;;;4.15;1.65;;;;;;;16.58;29.06;99889.50;5032245;28;20056;-73
2022/04/17 06:36:44;;;;;;;5.10;1.73;;;;;;;17.35;28.68;99886.84;5015422;28;20082;-74
2022/04/17 06:39:10;;;;;;;3.95;1.45;;;;;;;17.90;27.56;99878.84;5026327;28;20260;-74
2022/04/17 06:41:35;;;;;;;3.53;1.85;;;;;;;17.81;27.28;99908.38;5016060;28;20033;-73
2022/04/17 06:44:01;;;;;;;2.63;1.83;;;;;;;17.69;27.38;99908.25;5028502;28;20040;-73
2022/04/17 06:46:26;;;;;;;3.78;1.88;;;;;;;19.85;25.43;99883.25;5036092;28;20382;-74
2022/04/17 06:48:51;;;;;;;3.20;1.98;;;;;;;20.39;24.98;99896.88;5033981;28;20025;-74
2022/04/17 06:51:22;;;;;;;2.40;1.40;;;;;;;19.12;25.94;99878.88;5008946;28;20395;-74
2022/04/17 06:53:47;;;;;;;4.05;1.60;;;;;;;18.80;25.97;99881.03;5026849;28;20662;-76
2022/04/17 06:56:16;;;;;;;3.90;1.95;;;;;;;18.61;26.22;99891.97;5017027;28;20025;-74
2022/04/17 06:58:41;;;;;;;2.90;1.65;;;;;;;19.58;25.55;99891.06;5008390;28;20033;-74
2022/04/17 07:01:07;;;;;;;5.07;1.70;;;;;;;21.19;23.82;99881.47;5030682;28;20095;-73
2022/04/17 07:03:33;;;;;;;3.75;1.60;;;;;;;20.18;24.72;99879.09;5008590;28;20371;-73
2022/04/17 07:05:58;;;;;;;5.32;1.42;;;;;;;21.35;23.26;99866.06;5031795;28;20100;-73
2022/04/17 07:08:25;;;;;;;4.35;1.90;;;;;;;21.26;23.51;99886.81;5014253;28;20053;-74
2022/04/17 07:10:50;;;;;;;3.95;1.90;;;;;;;21.43;22.92;99891.31;5027569;28;20083;-72
2022/04/17 07:13:18;;;;;;;3.35;1.63;;;;;;;20.66;23.81;99886.19;5030647;28;20021;-75
2022/04/17 07:15:43;;;;;;;3.97;1.70;;;;;;;21.08;23.98;99871.34;5032598;28;20418;-73
2022/04/17 07:18:08;;;;;;;2.78;1.48;;;;;;;21.55;23.00;99860.94;5034368;28;20041;-73
2022/04/17 07:20:35;;;;;;;3.97;1.80;;;;;;;22.26;22.01;99860.41;5036215;28;20021;-72
2022/04/17 07:23:01;;;;;;;3.33;1.60;;;;;;;22.02;22.30;99854.25;5035709;28;20029;-73
2022/04/17 07:25:26;;;;;;;4.05;1.48;;;;;;;23.24;20.93;99860.50;5016688;28;20447;-74
2022/04/17 07:27:53;;;;;;;4.45;1.45;;;;;;;21.91;22.24;99828.47;5036711;28;20032;-73
2022/04/17 07:30:19;;;;;;;2.90;1.95;;;;;;;23.37;21.14;99853.72;5034693;28;20036;-73
2022/04/17 07:32:48;;;;;;;4.85;1.45;;;;;;;22.40;22.29;99838.81;5015720;28;20116;-72
2022/04/17 07:35:15;;;;;;;2.80;1.67;;;;;;;21.38;23.65;99862.88;5019432;28;20063;-72
2022/04/17 07:37:41;;;;;;;2.22;1.30;;;;;;;21.50;23.16;99851.75;5036544;28;20033;-72
2022/04/17 07:40:15;;;;;;;3.00;1.52;;;;;;;22.61;22.12;99864.72;5030745;28;20037;-72
2022/04/17 07:42:42;;;;;;;3.90;1.77;;;;;;;22.97;21.93;99855.78;5032115;28;20052;-69
2022/04/17 07:45:08;;;;;;;3.08;1.40;;;;;;;23.23;21.32;99860.75;5032305;28;20025;-69
2022/04/17 07:47:34;;;;;;;4.50;1.50;;;;;;;22.57;21.33;99861.66;5031436;28;20419;-69
2022/04/17 07:49:59;;;;;;;2.80;1.40;;;;;;;21.42;23.63;99855.75;5015564;28;20106;-76
2022/04/17 07:52:24;;;;;;;3.20;1.52;;;;;;;22.17;22.42;99840.69;5014512;28;20156;-78
2022/04/17 07:54:50;;;;;;;2.72;1.55;;;;;;;22.64;21.54;99851.25;5032594;28;20025;-74
2022/04/17 07:57:15;;;;;;;3.30;1.27;;;;;;;22.97;22.11;99844.75;5026461;28;20014;-75
2022/04/17 07:59:41;;;;;;;2.13;1.10;;;;;;;23.22;20.87;99843.38;5029348;28;20076;-75
2022/04/17 08:02:22;;;;;;;1.77;1.10;;;;;;;22.57;21.67;99825.78;5033177;28;20057;-74
2022/04/17 08:04:51;;;;;;;2.42;1.25;;;;;;;23.39;21.41;99844.06;5009569;28;20530;-75
2022/04/17 08:07:20;;;;;;;4.60;1.23;;;;;;;23.26;20.38;99825.16;5029690;28;20037;-75
2022/04/17 08:09:46;;;;;;;3.60;1.40;;;;;;;22.88;21.41;99837.19;5026191;28;20143;-75
2022/04/17 08:12:12;;;;;;;2.83;1.33;;;;;;;22.20;21.88;99826.44;5017820;28;20098;-76
2022/04/17 08:14:37;;;;;;;3.72;1.30;;;;;;;24.09;20.86;99835.78;5015948;28;20021;-76
2022/04/17 08:17:03;;;;;;;3.95;1.30;;;;;;;23.54;20.32;99820.44;5029006;28;20044;-76
2022/04/17 08:19:29;;;;;;;4.28;1.58;;;;;;;24.15;19.59;99839.41;5017006;28;20029;-76
2022/04/17 08:21:55;;;;;;;3.08;1.33;;;;;;;23.73;20.13;99830.00;5031797;28;20029;-76
2022/04/17 08:24:21;;;;;;;2.53;1.25;;;;;;;22.53;20.67;99822.72;5027190;28;20360;-75
2022/04/17 08:26:46;;;;;;;2.00;1.10;;;;;;;21.20;22.33;99812.41;5031573;28;20017;-76
2022/04/17 08:29:12;;;;;;;1.73;1.00;;;;;;;21.19;21.68;99785.97;5007479;28;20018;-75
2022/04/17 08:31:37;;;;;;;1.67;1.20;;;;;;;21.80;21.80;99807.38;5024812;28;20036;-75
2022/04/17 08:34:03;;;;;;;3.53;1.08;;;;;;;21.83;21.68;99795.84;5033467;28;20077;-75
2022/04/17 08:36:28;;;;;;;4.68;1.45;;;;;;;22.23;21.46;99805.78;5027793;28;20029;-72
2022/04/17 08:38:53;;;;;;;2.38;1.20;;;;;;;22.53;20.87;99784.13;5014580;28;20040;-72
2022/04/17 08:41:20;;;;;;;3.97;1.40;;;;;;;23.20;20.17;99793.09;5011800;28;20546;-71
2022/04/17 08:43:46;;;;;;;1.70;1.05;;;;;;;22.76;21.01;99794.00;5006065;28;20060;-71
2022/04/17 08:46:12;;;;;;;2.78;1.20;;;;;;;22.93;20.95;99771.00;5026143;28;20151;-70
2022/04/17 08:48:37;;;;;;;1.95;1.10;;;;;;;22.00;21.88;99791.09;5008373;28;20151;-71
2022/04/17 08:51:05;;;;;;;2.47;1.45;;;;;;;21.81;21.85;99779.56;5007485;28;20042;-70
2022/04/17 08:53:33;;;;;;;4.28;1.63;;;;;;;22.90;21.33;99771.53;5020759;28;20077;-72
2022/04/17 08:55:58;;;;;;;3.35;1.35;;;;;;;23.68;20.39;99769.16;5026575;28;20028;-73
2022/04/17 08:58:24;;;;;;;1.73;1.02;;;;;;;21.87;21.27;99764.75;5023541;28;20037;-70
2022/04/17 09:00:50;;;;;;;3.58;1.10;;;;;;;22.17;21.80;99751.66;5026972;28;20167;-70
2022/04/17 09:03:15;;;;;;;3.00;1.40;;;;;;;21.45;22.11;99756.97;5025532;28;20495;-69
2022/04/17 09:05:41;;;;;;;2.28;0.98;;;;;;;22.38;21.73;99759.13;5008386;28;20029;-72
2022/04/17 09:08:15;;;;;;;1.90;1.30;;;;;;;23.21;20.56;99749.75;5023475;28;20514;-70
2022/04/17 09:10:51;;;;;;;2.97;1.20;;;;;;;24.39;19.72;99749.38;5003622;28;20030;-71
2022/04/17 09:13:26;;;;;;;2.80;1.17;;;;;;;25.13;18.54;99753.69;4996984;28;20483;-71
2022/04/17 09:15:51;;;;;;;4.72;1.38;;;;;;;24.24;18.85;99754.84;5029235;28;20037;-70
2022/04/17 09:18:17;;;;;;;2.22;1.10;;;;;;;25.18;18.68;99740.97;5018024;28;20515;-71
2022/04/17 09:20:49;;;;;;;2.38;0.88;;;;;;;24.80;18.27;99735.66;5022608;28;20029;-71
2022/04/17 09:23:14;;;;;;;2.58;0.98;;;;;;;25.27;18.16;99750.41;5023096;28;20057;-71
2022/04/17 09:25:43;;;;;;;2.60;1.05;;;;;;;24.12;18.22;99740.41;5019247;28;20022;-71
2022/04/17 09:28:08;;;;;;;3.25;0.90;;;;;;;23.79;18.80;99736.94;5007472;28;20045;-71
2022/04/17 09:30:39;;;;;;;1.77;1.05;;;;;;;21.71;20.44;99740.00;5026505;28;20033;-71
2022/04/17 09:33:07;;;;;;;1.73;0.90;;;;;;;23.54;19.35;99730.13;5004059;28;20029;-71
2022/04/17 09:35:32;;;;;;;2.75;0.98;;;;;;;24.58;18.82;99735.91;5027672;28;20108;-70
2022/04/17 09:37:59;;;;;;;1.58;0.90;;;;;;;24.21;19.19;99730.53;5028538;28;20176;-72
2022/04/17 09:40:26;;;;;;;1.67;0.90;;;;;;;24.06;18.64;99728.50;5026539;28;20025;-71
2022/04/17 09:43:29;;;;;;;2.40;0.90;;;;;;;25.26;16.67;99712.75;5028016;28;20028;-71
2022/04/17 09:46:07;;;;;;;3.03;0.90;;;;;;;25.89;17.08;99715.16;5015132;28;20041;-71
2022/04/17 09:48:33;;;;;;;4.70;0.80;;;;;;;23.96;17.84;99717.41;5027227;28;20510;-70
2022/04/17 09:50:59;;;;;;;1.58;0.73;;;;;;;24.56;18.02;99690.25;5015519;28;20025;-71
2022/04/17 09:53:33;;;;;;;1.55;0.80;;;;;;;24.44;17.76;99707.06;5021025;28;20033;-71
2022/04/17 09:56:07;;;;;;;1.50;1.05;;;;;;;24.51;17.83;99702.13;5025083;28;20033;-71
2022/04/17 09:58:37;;;;;;;3.35;1.00;;;;;;;23.53;18.47;99708.31;5018701;28;20044;-72
2022/04/17 10:01:03;;;;;;;5.13;0.98;;;;;;;22.46;18.87;99695.22;5023329;28;20037;-73
2022/04/17 10:03:29;;;;;;;1.42;0.75;;;;;;;22.76;18.20;99677.31;5020734;28;20388;-70
2022/04/17 10:05:56;;;;;;;2.97;1.20;;;;;;;22.46;19.15;99689.72;5022028;28;20021;-72
2022/04/17 10:08:25;;;;;;;3.00;0.90;;;;;;;23.58;18.94;99672.44;5026133;28;20075;-72
2022/04/17 10:10:51;;;;;;;2.33;1.02;;;;;;;24.28;17.81;99684.88;5027658;28;20029;-71
2022/04/17 10:13:19;;;;;;;2.42;0.90;;;;;;;23.32;18.38;99675.03;5017326;28;20085;-73
2022/04/17 10:15:47;;;;;;;1.17;0.77;;;;;;;22.92;18.52;99665.31;5023144;28;20049;-73
2022/04/17 10:18:14;;;;;;;1.20;0.80;;;;;;;23.25;18.53;99663.38;5019088;28;20536;-72
2022/04/17 10:20:41;;;;;;;2.30;0.88;;;;;;;23.69;18.41;99690.72;5025766;28;20079;-72
2022/04/17 10:23:09;;;;;;;2.53;1.10;;;;;;;25.23;17.91;99678.13;5022111;28;20459;-70
2022/04/17 10:25:36;;;;;;;1.90;1.20;;;;;;;26.24;17.47;99659.50;5022900;28;20467;-71
2022/04/17 10:28:05;;;;;;;2.60;0.93;;;;;;;25.75;16.00;99676.06;5011753;28;20042;-70
2022/04/17 10:30:40;;;;;;;1.67;0.95;;;;;;;25.28;17.27;99680.91;5023623;28;20533;-70
2022/04/17 10:33:24;;;;;;;5.03;1.10;;;;;;;25.20;16.89;99672.31;5020483;28;20674;-70
2022/04/17 10:36:12;;;;;;;1.90;0.80;;;;;;;25.72;17.18;99666.38;5019435;28;20048;-71
2022/04/17 10:38:45;;;;;;;1.95;0.80;;;;;;;25.33;17.56;99646.78;5027647;28;20136;-72
2022/04/17 10:41:14;;;;;;;1.58;0.68;;;;;;;26.06;17.14;99643.53;5029516;28;20048;-71
2022/04/17 10:43:42;;;;;;;;;;;;;;;25.16;17.19;99641.59;5024531;28;20029;-70
2022/04/17 10:46:14;;;;;;;2.83;0.88;;;;;;;24.76;17.29;99647.91;5024063;28;19913;-69
2022/04/17 10:49:00;;;;;;;2.58;0.90;;;;;;;22.70;19.97;99639.75;5028373;28;20029;-72
2022/04/17 10:51:30;;;;;;;1.65;0.90;;;;;;;23.70;18.69;99634.34;5031090;28;20025;-73
2022/04/17 10:54:06;;;;;;;2.80;0.98;;;;;;;24.02;18.88;99630.63;5028244;28;20029;-70
2022/04/17 10:56:37;;;;;;;1.33;0.80;;;;;;;26.05;17.72;99630.78;5000014;28;20101;-70
2022/04/17 10:59:07;;;;;;;2.15;0.88;;;;;;;24.59;17.79;99626.06;5026999;28;20650;-70
2022/04/17 11:01:45;;;;;;;1.50;0.73;;;;;;;24.63;18.86;99628.00;5022132;28;20510;-73
2022/04/17 11:04:26;;;;;;;1.60;0.77;;;;;;;25.54;17.75;99626.25;5022847;28;20090;-70
2022/04/17 11:07:04;;;;;;;1.00;0.60;;;;;;;25.72;17.76;99621.19;5017830;28;20021;-71
2022/04/17 11:09:30;;;;;;;1.15;0.88;;;;;;;26.51;18.07;99615.78;5030866;28;20030;-67
2022/04/17 11:12:19;;;;;;;1.63;0.80;;;;;;;26.82;17.60;99608.88;5033264;28;20049;-74
2022/04/17 11:14:57;;;;;;;1.13;0.70;;;;;;;26.35;17.61;99599.22;5030413;28;20037;-74
2022/04/17 11:17:24;;;;;;;2.85;0.88;;;;;;;25.87;17.33;99596.22;5015152;28;20200;-76
2022/04/17 11:19:54;;;;;;;1.83;0.90;;;;;;;25.84;17.90;99591.25;5031408;28;20108;-74
2022/04/17 11:22:25;;;;;;;1.95;1.05;;;;;;;27.09;16.63;99593.63;5032235;28;20036;-73
2022/04/17 11:24:54;;;;;;;3.25;1.05;;;;;;;26.83;17.64;99579.19;5004523;28;20034;-72
2022/04/17 11:27:36;;;;;;;1.15;0.75;;;;;;;26.75;17.16;99569.53;5029043;28;20487;-71
2022/04/17 11:30:03;;;;;;;1.67;0.80;;;;;;;26.40;17.79;99576.19;5026714;28;20056;-71
2022/04/17 11:32:32;;;;;;;1.75;1.08;;;;;;;26.98;17.55;99569.88;5015743;28;20025;-73
2022/04/17 11:35:01;;;;;;;3.15;0.75;;;;;;;28.12;16.57;99571.03;5027608;28;20034;-73
2022/04/17 11:37:29;;;;;;;4.45;1.05;;;;;;;28.31;15.79;99568.22;5009946;28;20492;-74
2022/04/17 11:39:57;;;;;;;2.72;0.70;;;;;;;27.97;15.99;99580.41;5033445;28;20025;-74
2022/04/17 11:42:28;;;;;;;2.40;0.95;;;;;;;27.75;15.94;99578.19;5024162;28;20034;-72
2022/04/17 11:44:53;;;;;;;2.47;0.93;;;;;;;28.22;15.65;99556.09;5027060;28;20025;-72
2022/04/17 11:47:20;;;;;;;3.47;0.98;;;;;;;27.67;16.76;99563.00;5014148;28;20029;-70
2022/04/17 11:49:47;;;;;;;1.65;0.77;;;;;;;27.74;16.34;99549.53;5029708;28;20033;-71
2022/04/17 11:52:17;;;;;;;2.97;0.90;;;;;;;26.97;16.60;99562.66;5032948;28;20026;-69